createdAt,value
2022-08-04T00:00:14.808Z,87866.53
2022-08-04T00:03:19.470Z,87869.63
2022-08-04T00:06:23.031Z,87862.84
2022-08-04T00:08:57.408Z,87857.63
2022-08-04T00:11:30.751Z,87858.81
2022-08-04T00:14:11.552Z,87861.97
2022-08-04T00:16:58.123Z,87855.09
2022-08-04T00:19:40.741Z,87866.97
2022-08-04T00:22:11.823Z,87865.13
2022-08-04T00:24:40.336Z,87866.66
2022-08-04T00:27:08.869Z,87869.31
2022-08-04T00:29:39.472Z,87868.91
2022-08-04T00:32:08.705Z,87870.91
2022-08-04T00:34:37.339Z,87873.28
2022-08-04T00:37:06.771Z,87864.59
2022-08-04T00:39:34.934Z,87870.75
2022-08-04T00:42:23.035Z,87868.56
2022-08-04T00:45:30.069Z,87865.53
2022-08-04T00:48:38.602Z,87859.16
2022-08-04T00:51:15.166Z,87873.78
2022-08-04T00:54:20.647Z,87873.91
2022-08-04T00:57:33.644Z,87870.88
2022-08-04T01:00:10.828Z,87875.13
2022-08-04T01:03:07.984Z,87869.03
2022-08-04T01:05:47.382Z,87882.47
2022-08-04T01:08:55.390Z,87875.22
2022-08-04T01:12:02.374Z,87866.00
2022-08-04T01:15:10.458Z,87863.75
2022-08-04T01:17:43.358Z,87875.94
2022-08-04T01:20:17.151Z,87870.59
2022-08-04T01:23:20.840Z,87864.56
2022-08-04T01:26:42.002Z,87871.88
2022-08-04T01:29:10.192Z,87874.19
2022-08-04T01:32:03.522Z,87873.09
2022-08-04T01:34:42.755Z,87866.59
2022-08-04T01:37:30.803Z,87866.19
2022-08-04T01:40:08.433Z,87859.75
2022-08-04T01:42:38.418Z,87860.50
2022-08-04T01:45:15.495Z,87861.31
2022-08-04T01:47:56.069Z,87859.81
2022-08-04T01:50:25.444Z,87862.53
2022-08-04T01:52:55.181Z,87856.03
2022-08-04T01:55:24.573Z,87856.38
2022-08-04T01:58:12.766Z,87849.53
2022-08-04T02:00:56.571Z,87847.25
2022-08-04T02:04:18.226Z,87851.44
2022-08-04T02:07:08.478Z,87851.50
2022-08-04T02:10:08.125Z,87847.38
2022-08-04T02:12:58.941Z,87849.03
2022-08-04T02:16:09.907Z,87849.84
2022-08-04T02:18:56.778Z,87840.31
2022-08-04T02:21:27.727Z,87840.31
2022-08-04T02:24:16.348Z,87840.03
2022-08-04T02:26:50.200Z,87839.63
2022-08-04T02:29:52.752Z,87845.78
2022-08-04T02:32:30.009Z,87844.34
2022-08-04T02:35:12.993Z,87840.22
2022-08-04T02:37:51.851Z,87837.19
2022-08-04T02:40:21.593Z,87833.44
2022-08-04T02:42:51.123Z,87830.41
2022-08-04T02:45:23.050Z,87832.34
2022-08-04T02:48:28.687Z,87832.38
2022-08-04T02:50:44.587Z,87827.88
2022-08-04T02:53:18.344Z,87829.44
2022-08-04T02:55:50.751Z,87826.03
2022-08-04T02:58:23.620Z,87828.44
2022-08-04T03:00:51.860Z,87831.16
2022-08-04T03:03:36.419Z,87833.09
2022-08-04T03:06:54.800Z,87826.66
2022-08-04T03:09:52.701Z,87837.78
2022-08-04T03:13:06.363Z,87830.22
2022-08-04T03:15:55.115Z,87826.78
2022-08-04T03:18:54.838Z,87830.66
2022-08-04T03:22:01.118Z,87827.28
2022-08-04T03:24:58.930Z,87839.50
2022-08-04T03:27:47.794Z,87830.41
2022-08-04T03:30:43.578Z,87831.97
2022-08-04T03:34:16.473Z,87832.03
2022-08-04T03:37:19.487Z,87831.28
2022-08-04T03:40:24.956Z,87834.47
2022-08-04T03:43:56.824Z,87836.78
2022-08-04T03:46:54.077Z,87836.09
2022-08-04T03:49:58.258Z,87835.31
2022-08-04T03:53:03.056Z,87837.63
2022-08-04T03:56:08.742Z,87830.78
2022-08-04T03:58:48.310Z,87827.41
2022-08-04T04:02:00.973Z,87827.06
2022-08-04T04:04:57.832Z,87825.97
2022-08-04T04:08:03.935Z,87834.75
2022-08-04T04:11:17.807Z,87834.06
2022-08-04T04:14:31.858Z,87836.38
2022-08-04T04:17:52.683Z,87842.50
2022-08-04T04:21:14.617Z,87839.53
2022-08-04T04:24:06.037Z,87845.72
2022-08-04T04:26:54.738Z,87839.22
2022-08-04T04:30:05.060Z,87841.09
2022-08-04T04:33:06.463Z,87842.66
2022-08-04T04:35:52.519Z,87833.53
2022-08-04T04:38:40.967Z,87842.72
2022-08-04T04:41:26.844Z,87838.19
2022-08-04T04:44:09.225Z,87837.00
2022-08-04T04:46:54.859Z,87838.16
2022-08-04T04:49:57.347Z,87839.66
2022-08-04T04:52:42.239Z,87836.66
2022-08-04T04:55:37.023Z,87838.97
2022-08-04T04:58:05.443Z,87840.84
2022-08-04T05:00:46.524Z,87842.78
2022-08-04T05:04:06.644Z,87837.47
2022-08-04T05:07:18.885Z,87843.53
2022-08-04T05:10:29.495Z,87843.59
2022-08-04T05:14:37.448Z,87840.16
2022-08-04T05:16:37.633Z,87847.03
2022-08-04T05:19:31.126Z,87843.22
2022-08-04T05:22:18.922Z,87839.81
2022-08-04T05:25:00.687Z,87842.03
2022-08-04T05:28:02.993Z,87834.03
2022-08-04T05:30:35.565Z,87833.63
2022-08-04T05:33:11.161Z,87831.31
2022-08-04T05:36:16.644Z,87825.94
2022-08-04T05:38:40.980Z,87829.75
2022-08-04T05:41:10.863Z,87830.44
2022-08-04T05:43:43.438Z,87820.81
2022-08-04T05:46:14.056Z,87831.78
2022-08-04T05:48:43.495Z,87822.59
2022-08-04T05:51:12.491Z,87816.75
2022-08-04T05:53:41.512Z,87821.91
2022-08-04T05:56:12.214Z,87826.00
2022-08-04T05:58:41.050Z,87822.81
2022-08-04T06:01:12.395Z,87810.47
2022-08-04T06:03:41.322Z,87824.44
2022-08-04T06:06:11.395Z,87815.50
2022-08-04T06:08:39.223Z,87806.97
2022-08-04T06:11:11.923Z,87806.78
2022-08-04T06:14:01.007Z,87811.94
2022-08-04T06:16:38.403Z,87804.13
2022-08-04T06:20:03.633Z,87810.78
2022-08-04T06:22:00.249Z,87803.75
2022-08-04T06:24:32.617Z,87802.03
2022-08-04T06:27:03.153Z,87801.47
2022-08-04T06:29:33.205Z,87802.72
2022-08-04T06:32:28.013Z,87795.66
2022-08-04T06:34:57.662Z,87799.25
2022-08-04T06:37:41.967Z,87802.44
2022-08-04T06:40:30.095Z,87793.41
2022-08-04T06:43:06.529Z,87791.25
2022-08-04T06:45:40.854Z,87791.81
2022-08-04T06:48:13.377Z,87788.16
2022-08-04T06:51:25.816Z,87798.59
2022-08-04T06:53:31.009Z,87787.31
2022-08-04T06:56:01.689Z,87787.06
2022-08-04T06:58:33.405Z,87786.06
2022-08-04T07:01:02.411Z,87794.25
2022-08-04T07:03:31.262Z,87794.81
2022-08-04T07:06:05.966Z,87785.84
2022-08-04T07:08:42.030Z,87792.16
2022-08-04T07:11:10.118Z,87785.09
2022-08-04T07:13:41.947Z,87789.53
2022-08-04T07:16:14.674Z,87781.63
2022-08-04T07:18:42.560Z,87779.94
2022-08-04T07:21:11.430Z,87779.75
2022-08-04T07:23:39.059Z,87783.06
2022-08-04T07:26:12.719Z,87778.69
2022-08-04T07:28:41.652Z,87774.22
2022-08-04T07:31:33.495Z,87776.28
2022-08-04T07:34:17.458Z,87773.81
2022-08-04T07:36:53.098Z,87776.75
2022-08-04T07:39:28.516Z,87783.88
2022-08-04T07:42:02.338Z,87779.59
2022-08-04T07:44:35.486Z,87768.63
2022-08-04T07:47:06.328Z,87768.00
2022-08-04T07:49:54.476Z,87760.91
2022-08-04T07:52:22.793Z,87765.22
2022-08-04T07:54:51.596Z,87760.38
2022-08-04T07:57:40.234Z,87759.41
2022-08-04T08:00:08.798Z,87761.22
2022-08-04T08:02:37.518Z,87755.22
2022-08-04T08:05:07.716Z,87759.59
2022-08-04T08:07:35.110Z,87757.34
2022-08-04T08:10:02.680Z,87765.75
2022-08-04T08:12:37.906Z,87754.34
2022-08-04T08:15:20.883Z,87753.50
2022-08-04T08:20:32.970Z,87753.78
2022-08-04T08:23:02.960Z,87753.97
2022-08-04T08:25:34.203Z,87741.63
2022-08-04T08:28:04.661Z,87745.25
2022-08-04T08:30:33.746Z,87744.69
2022-08-04T08:33:06.457Z,87749.84
2022-08-04T08:35:54.828Z,87747.78
2022-08-04T08:39:03.739Z,87745.84
2022-08-04T08:42:07.858Z,87739.00
2022-08-04T08:44:56.062Z,87737.28
2022-08-04T08:48:05.338Z,87741.13
2022-08-04T08:50:52.762Z,87740.41
2022-08-04T08:53:53.808Z,87741.25
2022-08-04T08:56:48.092Z,87733.66
2022-08-04T08:59:57.443Z,87734.72
2022-08-04T09:02:42.412Z,87731.16
2022-08-04T09:05:35.736Z,87735.84
2022-08-04T09:08:33.312Z,87737.69
2022-08-04T09:11:16.929Z,87737.88
2022-08-04T09:14:15.508Z,87729.41
2022-08-04T09:17:03.891Z,87726.47
2022-08-04T09:19:39.623Z,87733.97
2022-08-04T09:22:30.220Z,87728.78
2022-08-04T09:25:20.417Z,87729.09
2022-08-04T09:28:04.389Z,87732.72
2022-08-04T09:30:54.960Z,87725.09
2022-08-04T09:33:44.918Z,87732.91
2022-08-04T09:36:37.417Z,87723.91
2022-08-04T09:39:33.579Z,87722.03
2022-08-04T09:42:30.531Z,87728.03
2022-08-04T09:45:15.622Z,87723.56
2022-08-04T09:48:09.896Z,87723.28
2022-08-04T09:50:45.781Z,87721.19
2022-08-04T09:53:53.222Z,87717.44
2022-08-04T09:56:46.307Z,87714.75
2022-08-04T09:59:27.876Z,87710.84
2022-08-04T10:02:06.490Z,87696.75
2022-08-04T10:04:38.076Z,87700.97
2022-08-04T10:07:40.463Z,87702.34
2022-08-04T10:10:38.938Z,87703.97
2022-08-04T10:13:18.002Z,87699.03
2022-08-04T10:16:06.610Z,87691.22
2022-08-04T10:18:45.820Z,87692.88
2022-08-04T10:21:27.796Z,87683.41
2022-08-04T10:24:33.032Z,87687.56
2022-08-04T10:27:12.502Z,87681.41
2022-08-04T10:29:47.575Z,87670.13
2022-08-04T10:32:43.138Z,87668.59
2022-08-04T10:35:22.210Z,87669.19
2022-08-04T10:38:25.139Z,87667.47
2022-08-04T10:41:04.214Z,87671.63
2022-08-04T10:44:04.659Z,87666.00
2022-08-04T10:46:43.984Z,87668.78
2022-08-04T10:49:31.292Z,87663.47
2022-08-04T10:52:32.330Z,87668.28
2022-08-04T10:56:06.609Z,87664.13
2022-08-04T10:58:47.149Z,87657.28
2022-08-04T11:02:00.034Z,87662.81
2022-08-04T11:05:18.103Z,87654.63
2022-08-04T11:07:50.437Z,87661.25
2022-08-04T11:10:25.483Z,87660.53
2022-08-04T11:13:03.354Z,87652.84
2022-08-04T11:15:49.614Z,87650.78
2022-08-04T11:19:07.802Z,87650.31
2022-08-04T11:21:44.810Z,87645.13
2022-08-04T11:24:26.373Z,87649.78
2022-08-04T11:27:05.176Z,87645.78
2022-08-04T11:30:09.476Z,87653.41
2022-08-04T11:32:46.442Z,87645.75
2022-08-04T11:35:43.322Z,87647.69
2022-08-04T11:38:52.058Z,87641.94
2022-08-04T11:41:33.773Z,87650.47
2022-08-04T11:44:09.169Z,87635.47
2022-08-04T11:46:53.005Z,87633.09
2022-08-04T11:49:56.570Z,87639.50
2022-08-04T11:52:28.537Z,87636.72
2022-08-04T11:54:58.007Z,87629.66
2022-08-04T11:57:35.703Z,87620.34
2022-08-04T12:00:12.685Z,87623.69
2022-08-04T12:03:19.554Z,87618.38
2022-08-04T12:05:52.357Z,87621.91
2022-08-04T12:08:43.371Z,87619.50
2022-08-04T12:11:28.598Z,87622.06
2022-08-04T12:14:27.385Z,87613.19
2022-08-04T12:17:05.504Z,87606.53
2022-08-04T12:20:04.894Z,87607.81
2022-08-04T12:22:50.233Z,87601.91
2022-08-04T12:25:33.144Z,87606.63
2022-08-04T12:28:08.421Z,87604.41
2022-08-04T12:30:58.484Z,87599.69
2022-08-04T12:34:04.694Z,87597.22
2022-08-04T12:37:09.592Z,87595.28
2022-08-04T12:40:27.934Z,87592.53
2022-08-04T12:43:13.718Z,87594.25
2022-08-04T12:45:49.042Z,87594.75
2022-08-04T12:48:22.630Z,87589.75
2022-08-04T12:50:54.211Z,87587.53
2022-08-04T12:53:31.496Z,87587.25
2022-08-04T12:56:02.780Z,87593.72
2022-08-04T12:58:42.633Z,87588.72
2022-08-04T13:02:09.426Z,87586.72
2022-08-04T13:04:20.241Z,87585.47
2022-08-04T13:06:57.838Z,87588.88
2022-08-04T13:09:29.899Z,87588.63
2022-08-04T13:12:02.036Z,87590.88
2022-08-04T13:14:36.423Z,87591.56
2022-08-04T13:17:04.304Z,87580.84
2022-08-04T13:19:33.857Z,87582.53
2022-08-04T13:22:09.430Z,87584.78
2022-08-04T13:24:56.901Z,87587.50
2022-08-04T13:27:29.128Z,87580.50
2022-08-04T13:30:14.716Z,87578.72
2022-08-04T13:32:57.747Z,87577.97
2022-08-04T13:35:55.717Z,87573.53
2022-08-04T13:38:18.980Z,87575.25
2022-08-04T13:40:48.297Z,87573.00
2022-08-04T13:44:15.455Z,87569.66
2022-08-04T13:46:28.267Z,87563.03
2022-08-04T13:52:04.633Z,87564.94
2022-08-04T13:54:45.934Z,87559.59
2022-08-04T13:57:44.197Z,87560.19
2022-08-04T14:00:12.653Z,87560.06
2022-08-04T14:03:03.013Z,87552.19
2022-08-04T14:05:36.982Z,87549.78
2022-08-04T14:08:29.095Z,87558.84
2022-08-04T14:10:59.993Z,87558.47
2022-08-04T14:13:41.499Z,87560.56
2022-08-04T14:16:22.094Z,87557.81
2022-08-04T14:19:00.873Z,87551.28
2022-08-04T14:21:28.642Z,87554.47
2022-08-04T14:23:57.685Z,87551.00
2022-08-04T14:26:33.857Z,87547.44
2022-08-04T14:29:27.628Z,87555.75
2022-08-04T14:32:13.974Z,87555.00
2022-08-04T14:34:45.937Z,87556.09
2022-08-04T14:37:19.719Z,87551.44
2022-08-04T14:40:08.441Z,87548.25
2022-08-04T14:42:55.452Z,87550.78
2022-08-04T14:45:54.251Z,87553.69
2022-08-04T14:48:23.742Z,87552.16
2022-08-04T14:50:52.225Z,87552.84
2022-08-04T14:53:23.584Z,87563.22
2022-08-04T14:55:58.985Z,87560.41
2022-08-04T14:58:39.058Z,87553.66
2022-08-04T15:01:12.892Z,87564.81
2022-08-04T15:03:50.900Z,87561.22
2022-08-04T15:06:28.568Z,87565.69
2022-08-04T15:13:07.363Z,87567.63
2022-08-04T15:15:37.297Z,87561.06
2022-08-04T15:22:05.346Z,87561.84
2022-08-04T15:24:41.910Z,87559.50
2022-08-04T15:27:11.725Z,87559.94
2022-08-04T15:30:00.804Z,87555.75
2022-08-04T15:36:27.946Z,87567.00
2022-08-04T15:43:33.174Z,87568.56
2022-08-04T15:46:33.080Z,87576.28
2022-08-04T15:48:50.661Z,87571.75
2022-08-04T15:51:32.083Z,87577.53
2022-08-04T15:54:56.466Z,87569.84
2022-08-04T15:58:02.237Z,87564.72
2022-08-04T16:00:49.634Z,87568.25
2022-08-04T16:04:00.277Z,87563.03
2022-08-04T16:06:22.579Z,87561.69
2022-08-04T16:08:57.385Z,87554.03
2022-08-04T16:11:30.804Z,87562.59
2022-08-04T16:14:01.552Z,87564.78
2022-08-04T16:16:49.286Z,87569.88
2022-08-04T16:20:01.745Z,87565.31
2022-08-04T16:22:39.885Z,87561.97
2022-08-04T16:25:11.490Z,87567.47
2022-08-04T16:27:44.769Z,87563.84
2022-08-04T16:30:15.225Z,87572.38
2022-08-04T16:32:48.083Z,87566.03
2022-08-04T16:35:28.405Z,87569.06
2022-08-04T16:38:14.950Z,87572.38
2022-08-04T16:40:43.269Z,87564.19
2022-08-04T16:43:17.118Z,87565.44
2022-08-04T16:45:51.925Z,87564.00
2022-08-04T16:48:32.200Z,87567.22
2022-08-04T16:51:10.813Z,87572.94
2022-08-04T16:53:58.696Z,87569.47
2022-08-04T16:56:35.372Z,87563.69
2022-08-04T16:59:12.333Z,87572.09
2022-08-04T17:01:52.695Z,87585.94
2022-08-04T17:04:35.072Z,87575.66
2022-08-04T17:07:06.015Z,87573.88
2022-08-04T17:09:33.502Z,87574.56
2022-08-04T17:12:00.751Z,87578.25
2022-08-04T17:14:31.270Z,87582.63
2022-08-04T17:17:02.508Z,87584.53
2022-08-04T17:19:29.769Z,87587.19
2022-08-04T17:22:07.216Z,87593.00
2022-08-04T17:24:41.331Z,87587.44
2022-08-04T17:28:19.521Z,87594.81
2022-08-04T17:29:58.119Z,87596.47
2022-08-04T17:32:25.538Z,87605.56
2022-08-04T17:35:00.437Z,87606.75
2022-08-04T17:40:25.409Z,87602.84
2022-08-04T17:44:03.015Z,87612.94
2022-08-04T17:46:28.933Z,87614.28
2022-08-04T17:49:31.268Z,87610.50
2022-08-04T17:52:41.506Z,87616.34
2022-08-04T17:55:13.653Z,87619.00
2022-08-04T17:57:52.671Z,87616.94
2022-08-04T18:00:20.375Z,87626.75
2022-08-04T18:02:54.722Z,87622.22
2022-08-04T18:05:50.133Z,87624.56
2022-08-04T18:11:03.989Z,87631.00
2022-08-04T18:13:42.849Z,87636.84
2022-08-04T18:16:22.301Z,87635.72
2022-08-04T18:19:14.526Z,87637.84
2022-08-04T18:21:46.987Z,87634.28
2022-08-04T18:24:56.248Z,87641.03
2022-08-04T18:27:29.911Z,87639.38
2022-08-04T18:30:33.544Z,87647.41
2022-08-04T18:33:16.813Z,87642.84
2022-08-04T18:36:33.572Z,87644.91
2022-08-04T18:38:24.337Z,87649.03
2022-08-04T18:40:54.687Z,87644.44
2022-08-04T18:43:28.433Z,87658.38
2022-08-04T18:45:59.315Z,87654.06
2022-08-04T18:48:36.276Z,87657.59
2022-08-04T18:51:10.988Z,87669.09
2022-08-04T18:53:55.215Z,87673.13
2022-08-04T18:56:32.706Z,87670.75
2022-08-04T19:02:13.573Z,87679.88
2022-08-04T19:04:55.817Z,87673.63
2022-08-04T19:07:34.320Z,87673.69
2022-08-04T19:10:26.802Z,87691.31
2022-08-04T19:13:02.220Z,87688.94
2022-08-04T19:15:34.592Z,87681.00
2022-08-04T19:18:06.931Z,87686.31
2022-08-04T19:20:37.107Z,87691.59
2022-08-04T19:24:27.131Z,87700.06
2022-08-04T19:25:58.668Z,87699.47
2022-08-04T19:28:34.845Z,87700.84
2022-08-04T19:31:10.617Z,87705.13
2022-08-04T19:33:59.136Z,87703.81
2022-08-04T19:36:32.780Z,87706.38
2022-08-04T19:39:11.534Z,87714.63
2022-08-04T19:42:04.411Z,87718.72
2022-08-04T19:44:29.884Z,87721.00
2022-08-04T19:47:02.246Z,87720.72
2022-08-04T19:50:04.023Z,87733.66
2022-08-04T19:52:34.197Z,87725.69
2022-08-04T19:55:10.018Z,87740.56
2022-08-04T19:57:39.797Z,87733.53
2022-08-04T20:00:10.068Z,87735.94
2022-08-04T20:02:38.032Z,87734.75
2022-08-04T20:05:08.759Z,87738.09
2022-08-04T20:07:36.612Z,87737.94
2022-08-04T20:10:07.748Z,87735.84
2022-08-04T20:12:42.206Z,87737.06
2022-08-04T20:15:11.072Z,87733.34
2022-08-04T20:18:08.391Z,87740.06
2022-08-04T20:20:30.399Z,87733.31
2022-08-04T20:22:57.650Z,87738.44
2022-08-04T20:25:36.533Z,87739.78
2022-08-04T20:28:05.524Z,87736.50
2022-08-04T20:30:33.287Z,87743.56
2022-08-04T20:33:00.509Z,87739.03
2022-08-04T20:35:31.724Z,87743.25
2022-08-04T20:38:33.755Z,87741.16
2022-08-04T20:41:00.619Z,87745.81
2022-08-04T20:43:31.268Z,87742.06
2022-08-04T20:45:59.491Z,87754.22
2022-08-04T20:48:33.535Z,87756.16
2022-08-04T20:51:01.362Z,87749.69
2022-08-04T20:53:46.610Z,87753.16
2022-08-04T20:56:19.297Z,87758.25
2022-08-04T20:58:57.702Z,87759.63
2022-08-04T21:01:29.603Z,87751.06
2022-08-04T21:04:00.628Z,87751.53
2022-08-04T21:06:28.133Z,87759.31
2022-08-04T21:08:57.073Z,87760.50
2022-08-04T21:11:25.149Z,87762.03
2022-08-04T21:14:00.757Z,87760.81
2022-08-04T21:16:55.187Z,87763.06
2022-08-04T21:19:15.457Z,87765.78
2022-08-04T21:21:42.777Z,87759.63
2022-08-04T21:24:13.515Z,87765.19
2022-08-04T21:26:42.933Z,87772.53
2022-08-04T21:29:13.600Z,87762.78
2022-08-04T21:31:51.019Z,87758.84
2022-08-04T21:34:38.124Z,87757.22
2022-08-04T21:37:10.456Z,87763.22
2022-08-04T21:39:58.926Z,87767.13
2022-08-04T21:42:28.878Z,87766.50
2022-08-04T21:44:58.329Z,87769.19
2022-08-04T21:47:25.698Z,87776.22
2022-08-04T21:49:56.535Z,87765.72
2022-08-04T21:52:25.278Z,87769.31
2022-08-04T21:54:54.577Z,87771.25
2022-08-04T21:57:24.768Z,87761.81
2022-08-04T21:59:53.006Z,87770.34
2022-08-04T22:02:20.388Z,87770.06
2022-08-04T22:04:47.667Z,87770.06
2022-08-04T22:07:16.378Z,87781.31
2022-08-04T22:09:45.667Z,87776.34
2022-08-04T22:12:29.941Z,87775.75
2022-08-04T22:14:59.585Z,87779.94
2022-08-04T22:17:35.256Z,87780.38
2022-08-04T22:20:04.565Z,87772.56
2022-08-04T22:22:36.493Z,87771.66
2022-08-04T22:25:13.264Z,87769.13
2022-08-04T22:27:42.642Z,87770.47
2022-08-04T22:30:17.385Z,87763.56
2022-08-04T22:32:50.371Z,87772.69
2022-08-04T22:35:36.063Z,87765.94
2022-08-04T22:38:25.363Z,87762.59
2022-08-04T22:41:04.796Z,87763.19
2022-08-04T22:43:34.565Z,87765.25
2022-08-04T22:46:12.026Z,87763.44
2022-08-04T22:48:43.719Z,87765.97
2022-08-04T22:51:12.992Z,87768.66
2022-08-04T22:53:41.165Z,87763.53
2022-08-04T22:56:10.615Z,87764.00
2022-08-04T22:58:50.997Z,87759.94
2022-08-04T23:01:19.510Z,87761.56
2022-08-04T23:03:51.128Z,87761.41
2022-08-04T23:06:25.179Z,87756.91
2022-08-04T23:08:53.238Z,87767.06
2022-08-04T23:11:21.195Z,87774.06
2022-08-04T23:13:49.155Z,87774.63
2022-08-04T23:16:16.969Z,87770.88
2022-08-04T23:18:48.947Z,87764.44
2022-08-04T23:21:17.197Z,87772.66
2022-08-04T23:24:00.941Z,87769.78
2022-08-04T23:26:30.906Z,87761.94
2022-08-04T23:28:58.599Z,87766.28
2022-08-04T23:31:40.384Z,87770.13
2022-08-04T23:34:09.474Z,87762.94
2022-08-04T23:36:40.709Z,87758.44
2022-08-04T23:39:08.214Z,87763.84
2022-08-04T23:41:54.186Z,87759.31
2022-08-04T23:44:26.931Z,87764.69
2022-08-04T23:47:02.725Z,87766.78
2022-08-04T23:49:43.457Z,87768.41
2022-08-04T23:52:23.204Z,87766.28
2022-08-04T23:54:55.320Z,87766.06
2022-08-04T23:57:22.742Z,87763.53
2022-08-04T23:59:54.941Z,87757.06
